Time;durP1;ratioP1;P1;durP2;ratioP2;P2;SDS_P1;SDS_P2;PMS_P1;PMS_P2;Temp;Humidity;BMP_temperature;BMP_pressure;BME280_temperature;BME280_humidity;BME280_pressure;Samples;Min_cycle;Max_cycle;Signal;HPM_P1;HPM_P2
2022/01/23 00:00:02;;;;;;;19.30;9.45;;;4.70;88.00;;;;;;6271096;22;19999;-61
2022/01/23 00:02:28;;;;;;;26.02;9.60;;;4.70;88.10;;;;;;6270751;22;20065;-62
2022/01/23 00:04:54;;;;;;;32.20;10.07;;;4.60;88.10;;;;;;6268791;22;20008;-60
2022/01/23 00:07:20;;;;;;;24.67;9.68;;;4.70;88.10;;;;;;6269107;22;20008;-62
2022/01/23 00:09:46;;;;;;;29.50;9.85;;;4.60;88.10;;;;;;6270766;22;20006;-61
2022/01/23 00:12:18;;;;;;;24.15;10.05;;;4.60;88.20;;;;;;6272656;22;20008;-63
2022/01/23 00:17:33;;;;;;;18.98;9.10;;;4.50;88.20;;;;;;6267937;22;20015;-62
2022/01/23 00:20:00;;;;;;;26.88;10.05;;;4.50;88.30;;;;;;6268834;22;20064;-61
2022/01/23 00:22:50;;;;;;;21.55;9.82;;;4.50;88.40;;;;;;6269008;22;20007;-60
2022/01/23 00:30:45;;;;;;;25.70;10.10;;;4.50;88.40;;;;;;6269758;22;20444;-61
2022/01/23 00:33:11;;;;;;;19.67;9.65;;;4.40;88.40;;;;;;6218546;22;20008;-61
2022/01/23 00:35:38;;;;;;;27.40;10.50;;;4.50;88.50;;;;;;6269676;22;20452;-61
2022/01/23 00:38:04;;;;;;;21.25;9.90;;;4.50;88.40;;;;;;6270493;22;20019;-61
2022/01/23 00:40:30;;;;;;;25.83;10.43;;;4.50;88.40;;;;;;6242230;22;20031;-61
2022/01/23 00:42:58;;;;;;;21.52;9.10;;;4.40;88.40;;;;;;6243350;22;20075;-62
2022/01/23 00:45:32;;;;;;;22.38;10.15;;;4.40;88.40;;;;;;6267763;22;20020;-61
2022/01/23 00:48:05;;;;;;;20.45;9.65;;;4.40;88.50;;;;;;6245162;22;20398;-61
2022/01/23 00:50:38;;;;;;;20.58;9.38;;;4.40;88.50;;;;;;6269379;22;20008;-61
2022/01/23 00:53:04;;;;;;;22.27;9.55;;;4.40;88.50;;;;;;6244677;22;20011;-62
2022/01/23 00:55:30;;;;;;;18.40;9.57;;;4.30;88.50;;;;;;6268962;22;19999;-62
2022/01/23 00:57:55;;;;;;;16.77;8.70;;;4.40;88.50;;;;;;6216945;22;20394;-61
2022/01/23 01:00:21;;;;;;;22.08;9.40;;;4.30;88.50;;;;;;6269074;22;20012;-60
2022/01/23 01:02:47;;;;;;;18.80;8.90;;;4.30;89.20;;;;;;6219112;22;20027;-62
2022/01/23 01:05:12;;;;;;;18.20;9.23;;;4.30;88.70;;;;;;6268938;22;20004;-62
2022/01/23 01:07:38;;;;;;;18.60;8.80;;;4.30;88.80;;;;;;6268642;22;20258;-62
2022/01/23 01:10:09;;;;;;;21.20;9.20;;;4.20;88.80;;;;;;6240995;22;20010;-62
2022/01/23 01:12:40;;;;;;;21.77;9.35;;;4.20;88.80;;;;;;6243736;22;20035;-62
2022/01/23 01:33:55;;;;;;;17.60;9.10;;;4.10;88.90;;;;;;6242331;22;20003;-62
2022/01/23 01:36:31;;;;;;;17.80;8.88;;;4.10;88.90;;;;;;6266859;22;20621;-61
2022/01/23 01:38:57;;;;;;;22.45;9.38;;;4.10;89.00;;;;;;6269867;22;20008;-62
2022/01/23 01:41:22;;;;;;;15.13;9.50;;;4.10;89.10;;;;;;6268823;22;20267;-62
2022/01/23 01:43:49;;;;;;;19.98;9.27;;;4.00;89.10;;;;;;6243198;22;20000;-62
2022/01/23 01:46:14;;;;;;;17.88;8.48;;;4.00;89.10;;;;;;6241505;22;20018;-61
2022/01/23 01:48:40;;;;;;;18.73;9.52;;;4.00;89.10;;;;;;6242198;22;20007;-62
2022/01/23 01:51:09;;;;;;;19.13;8.70;;;4.00;89.10;;;;;;6268520;22;20367;-61
2022/01/23 01:53:34;;;;;;;22.63;9.18;;;4.00;89.20;;;;;;6244296;22;19999;-62
2022/01/23 01:56:00;;;;;;;19.23;9.05;;;4.00;89.30;;;;;;6268328;22;20019;-62
2022/01/23 02:01:03;;;;;;;15.52;9.10;;;4.00;89.10;;;;;;6267896;22;20000;-63
2022/01/23 02:08:45;;;;;;;18.27;8.60;;;4.00;89.20;;;;;;6247036;22;20170;-62
2022/01/23 02:11:16;;;;;;;20.73;9.25;;;3.90;89.10;;;;;;6242307;22;20003;-60
2022/01/23 02:13:51;;;;;;;18.08;9.55;;;4.00;89.10;;;;;;6243948;22;20137;-60
2022/01/23 02:57:08;;;;;;;17.70;9.70;;;3.60;89.50;;;;;;6262151;22;20019;-61
2022/01/23 02:59:37;;;;;;;16.10;9.15;;;3.70;89.50;;;;;;6243674;22;20008;-62
2022/01/23 03:04:52;;;;;;;16.48;9.10;;;3.70;89.60;;;;;;6266102;22;20274;-62
2022/01/23 03:14:53;;;;;;;16.50;9.73;;;3.60;89.60;;;;;;6270233;22;20011;-61
2022/01/23 03:26:12;;;;;;;17.02;9.77;;;3.50;89.70;;;;;;6270537;22;20061;-60
2022/01/23 03:28:27;;;;;;;18.73;9.82;;;3.60;89.70;;;;;;6248261;22;20055;-60
2022/01/23 03:33:31;;;;;;;22.73;9.93;;;3.50;89.70;;;;;;6270098;22;20082;-63
2022/01/23 03:35:56;;;;;;;14.02;8.57;;;3.60;89.70;;;;;;6245236;22;20087;-62
2022/01/23 03:38:22;;;;;;;15.43;8.93;;;3.50;89.70;;;;;;6244362;22;20084;-62
2022/01/23 03:40:47;;;;;;;17.35;8.93;;;3.50;89.60;;;;;;6270045;22;20457;-62
2022/01/23 03:43:15;;;;;;;16.20;10.25;;;3.50;89.60;;;;;;6268949;22;20007;-60
2022/01/23 03:46:08;;;;;;;16.85;8.95;;;3.50;89.60;;;;;;6244129;22;20437;-61
2022/01/23 03:50:59;;;;;;;17.05;8.88;;;3.60;89.70;;;;;;6270650;22;20003;-62
2022/01/23 03:53:25;;;;;;;14.20;8.68;;;3.60;89.60;;;;;;6270147;22;19999;-61
2022/01/23 03:55:51;;;;;;;16.23;9.07;;;3.60;89.50;;;;;;6270159;22;20011;-60
2022/01/23 03:58:17;;;;;;;15.73;8.90;;;3.60;89.50;;;;;;6218430;22;20031;-62
2022/01/23 04:00:42;;;;;;;17.10;8.80;;;3.50;89.50;;;;;;6271978;22;20414;-60
2022/01/23 04:03:08;;;;;;;15.43;9.25;;;3.60;89.60;;;;;;6272412;22;20004;-61
2022/01/23 04:05:33;;;;;;;14.45;9.38;;;3.50;89.60;;;;;;6244147;22;20004;-61
2022/01/23 04:07:59;;;;;;;14.30;8.95;;;3.60;89.60;;;;;;6270917;22;20004;-62
2022/01/23 04:10:25;;;;;;;16.88;9.75;;;3.60;89.50;;;;;;6243282;22;20071;-62
2022/01/23 04:12:55;;;;;;;13.73;9.35;;;3.60;89.50;;;;;;6244406;22;19996;-62
2022/01/23 04:15:45;;;;;;;20.90;11.05;;;3.60;89.50;;;;;;6269649;22;20078;-62
2022/01/23 04:20:49;;;;;;;18.25;11.25;;;3.60;89.40;;;;;;6244279;22;20193;-60
2022/01/23 04:45:35;;;;;;;88.65;17.38;;;3.60;89.50;;;;;;6218674;22;20056;-61
2022/01/23 05:01:45;;;;;;;87.75;18.05;;;3.70;89.60;;;;;;6246722;22;20015;-61
2022/01/23 05:06:59;;;;;;;98.75;17.67;;;3.70;89.70;;;;;;6271705;22;20011;-62
2022/01/23 05:09:25;;;;;;;;;;;3.70;89.70;;;;;;6249548;22;19996;-61
2022/01/23 05:11:51;;;;;;;;;;;3.70;89.60;;;;;;6269302;22;19910;-62
2022/01/23 05:14:26;;;;;;;61.60;16.35;;;3.80;89.60;;;;;;6267617;22;19909;-62
2022/01/23 05:16:52;;;;;;;98.85;18.15;;;3.80;89.70;;;;;;6269162;22;20457;-60
2022/01/23 05:19:17;;;;;;;78.00;17.00;;;3.80;89.70;;;;;;6244563;22;20000;-61
2022/01/23 05:24:20;;;;;;;58.50;15.98;;;3.80;89.70;;;;;;6268362;22;20073;-63
2022/01/23 05:26:46;;;;;;;71.85;16.67;;;3.80;89.70;;;;;;6267013;22;20022;-62
2022/01/23 05:29:12;;;;;;;56.55;17.35;;;3.80;89.60;;;;;;6270160;22;20004;-62
2022/01/23 05:31:38;;;;;;;50.08;17.08;;;3.80;89.70;;;;;;6269754;22;20007;-61
2022/01/23 05:34:04;;;;;;;69.82;17.73;;;3.80;89.70;;;;;;6269581;22;20433;-61
2022/01/23 05:36:29;;;;;;;92.70;18.33;;;3.80;89.70;;;;;;6271169;22;20000;-60
2022/01/23 05:38:55;;;;;;;82.47;18.75;;;3.80;89.80;;;;;;6242044;22;20003;-62
2022/01/23 05:41:20;;;;;;;73.35;17.75;;;3.80;89.90;;;;;;6268195;22;20110;-60
2022/01/23 05:43:46;;;;;;;53.35;15.95;;;3.90;89.90;;;;;;6269273;22;20482;-63
2022/01/23 05:46:11;;;;;;;61.03;16.17;;;3.90;89.90;;;;;;6243176;22;20000;-60
2022/01/23 05:48:37;;;;;;;49.90;15.80;;;3.90;89.90;;;;;;6268153;22;19996;-60
2022/01/23 05:51:02;;;;;;;58.92;16.30;;;3.90;90.00;;;;;;6240986;22;20000;-62
2022/01/23 05:53:28;;;;;;;56.42;15.98;;;3.90;90.00;;;;;;6269304;22;19996;-60
2022/01/23 05:55:53;;;;;;;58.63;16.15;;;4.00;90.10;;;;;;6269330;22;20022;-61
2022/01/23 05:58:19;;;;;;;62.92;16.58;;;3.90;90.10;;;;;;6269735;22;20000;-61
2022/01/23 06:00:44;;;;;;;61.47;16.60;;;3.90;90.20;;;;;;6270805;22;20004;-60
2022/01/23 06:03:10;;;;;;;49.17;15.85;;;4.00;90.20;;;;;;6243203;22;20004;-60
2022/01/23 06:05:35;;;;;;;60.92;17.00;;;3.90;90.10;;;;;;6268376;22;20342;-59
2022/01/23 06:08:01;;;;;;;54.17;17.13;;;3.90;90.20;;;;;;6268982;22;20091;-61
2022/01/23 06:10:28;;;;;;;55.35;16.40;;;3.90;90.40;;;;;;6269189;22;20018;-61
2022/01/23 06:12:54;;;;;;;66.22;17.20;;;4.00;90.30;;;;;;6270385;22;20012;-61
2022/01/23 06:15:19;;;;;;;58.97;16.52;;;3.90;90.30;;;;;;6268951;22;20367;-61
2022/01/23 06:17:45;;;;;;;55.00;18.00;;;4.00;90.30;;;;;;6266380;22;20003;-60
2022/01/23 06:20:12;;;;;;;60.00;16.40;;;4.00;90.30;;;;;;6241568;22;20006;-61
2022/01/23 06:22:37;;;;;;;36.60;16.27;;;4.00;90.30;;;;;;6269794;22;20003;-62
2022/01/23 06:25:05;;;;;;;52.45;16.23;;;4.00;90.30;;;;;;6269302;22;20004;-62
2022/01/23 06:27:31;;;;;;;45.80;16.02;;;4.00;90.30;;;;;;6271121;22;20000;-61
2022/01/23 06:29:57;;;;;;;51.00;16.30;;;4.00;90.30;;;;;;6242181;22;20066;-61
2022/01/23 06:32:24;;;;;;;57.15;18.00;;;4.00;90.30;;;;;;6266676;22;20029;-60
2022/01/23 06:34:49;;;;;;;70.45;18.88;;;4.10;90.50;;;;;;6268712;22;20008;-61
2022/01/23 06:37:15;;;;;;;47.42;16.50;;;4.10;91.00;;;;;;6270467;22;20451;-61
2022/01/23 06:39:40;;;;;;;54.28;17.60;;;4.10;91.10;;;;;;6270243;22;20062;-61
2022/01/23 06:42:06;;;;;;;53.13;16.92;;;4.10;91.30;;;;;;6268597;22;20129;-62
2022/01/23 06:44:32;;;;;;;41.95;16.05;;;4.10;90.90;;;;;;6268515;22;20004;-60
2022/01/23 06:46:57;;;;;;;60.30;17.92;;;4.10;91.00;;;;;;6267426;22;20413;-61
2022/01/23 06:49:23;;;;;;;46.42;17.70;;;4.10;91.10;;;;;;6271114;22;20011;-61
2022/01/23 06:51:49;;;;;;;47.55;18.02;;;4.20;91.10;;;;;;6243750;22;20482;-61
2022/01/23 06:54:14;;;;;;;50.03;18.92;;;4.20;91.30;;;;;;6243321;22;20455;-62
2022/01/23 06:56:40;;;;;;;57.55;19.13;;;4.20;91.50;;;;;;6266902;22;20008;-60
2022/01/23 06:59:06;;;;;;;46.33;17.90;;;4.20;91.50;;;;;;6267485;22;20026;-61
2022/01/23 07:01:31;;;;;;;41.83;17.25;;;4.30;91.50;;;;;;6243645;22;20417;-62
2022/01/23 07:03:57;;;;;;;40.65;16.75;;;4.30;91.60;;;;;;6269164;22;19999;-61
2022/01/23 07:06:22;;;;;;;35.08;16.10;;;4.30;91.40;;;;;;6270755;22;20584;-62
2022/01/23 07:08:48;;;;;;;44.08;17.10;;;4.20;91.20;;;;;;6267559;22;20403;-61
2022/01/23 07:11:13;;;;;;;33.88;16.63;;;4.30;91.20;;;;;;6266168;22;20468;-63
2022/01/23 07:13:39;;;;;;;35.78;16.80;;;4.20;91.20;;;;;;6267807;22;20330;-61
2022/01/23 07:16:06;;;;;;;53.58;17.63;;;4.30;91.40;;;;;;6268594;22;20004;-61
2022/01/23 07:18:32;;;;;;;37.47;16.23;;;4.20;91.40;;;;;;6269565;22;19999;-61
2022/01/23 07:20:57;;;;;;;47.42;16.75;;;4.30;91.50;;;;;;6268376;22;20015;-61
2022/01/23 07:23:23;;;;;;;46.88;17.65;;;4.30;91.50;;;;;;6268403;22;20387;-62
2022/01/23 07:25:49;;;;;;;31.65;17.02;;;4.30;91.40;;;;;;6267497;22;20012;-61
2022/01/23 07:28:18;;;;;;;37.65;16.13;;;4.30;91.40;;;;;;6270381;22;20109;-61
2022/01/23 07:30:52;;;;;;;47.78;15.90;;;4.40;91.50;;;;;;6269036;22;20333;-61
2022/01/23 07:33:18;;;;;;;36.70;16.10;;;4.30;91.40;;;;;;6268862;22;20004;-62
2022/01/23 07:35:44;;;;;;;36.10;16.35;;;4.30;91.40;;;;;;6267170;22;20054;-60
2022/01/23 07:38:11;;;;;;;33.28;16.05;;;4.30;91.50;;;;;;6271072;22;20068;-62
2022/01/23 07:40:37;;;;;;;41.10;16.88;;;4.40;91.50;;;;;;6268304;22;20111;-62
2022/01/23 07:43:02;;;;;;;40.38;17.40;;;4.30;91.50;;;;;;6271003;22;20282;-61
2022/01/23 07:45:28;;;;;;;38.95;16.70;;;4.40;91.60;;;;;;6268588;22;20003;-62
2022/01/23 07:47:53;;;;;;;36.03;16.60;;;4.30;91.50;;;;;;6268067;22;20050;-62
2022/01/23 07:50:19;;;;;;;50.63;17.23;;;4.40;91.60;;;;;;6268694;22;20338;-62
2022/01/23 07:52:44;;;;;;;40.53;18.00;;;4.40;91.60;;;;;;6271084;22;20027;-60
2022/01/23 07:55:12;;;;;;;30.10;16.13;;;4.40;91.90;;;;;;6270137;22;20042;-60
2022/01/23 07:57:37;;;;;;;31.58;16.35;;;4.50;91.90;;;;;;6270743;22;20401;-61
2022/01/23 08:00:05;;;;;;;43.78;17.55;;;4.40;91.70;;;;;;6270889;22;20018;-61
2022/01/23 08:02:31;;;;;;;32.25;16.60;;;4.50;91.80;;;;;;6217172;22;20338;-60
2022/01/23 08:04:56;;;;;;;40.05;16.33;;;4.50;91.80;;;;;;6270154;22;20082;-61
2022/01/23 08:09:47;;;;;;;36.40;16.70;;;4.50;91.90;;;;;;6245233;22;20011;-62
2022/01/23 08:12:13;;;;;;;26.65;15.10;;;4.50;91.90;;;;;;6270334;22;20019;-60
2022/01/23 08:14:38;;;;;;;27.42;16.95;;;4.50;92.00;;;;;;6268283;22;20011;-60
2022/01/23 08:17:04;;;;;;;30.67;17.17;;;4.50;92.00;;;;;;6270749;22;20276;-60
2022/01/23 08:19:30;;;;;;;31.40;16.02;;;4.50;92.00;;;;;;6272091;22;20000;-61
2022/01/23 08:21:55;;;;;;;28.92;15.63;;;4.50;92.10;;;;;;6270476;22;20008;-61
2022/01/23 08:24:21;;;;;;;28.25;16.42;;;4.50;92.20;;;;;;6270146;22;20007;-61
2022/01/23 08:26:46;;;;;;;32.33;16.15;;;4.50;92.20;;;;;;6270382;22;20004;-62
2022/01/23 08:29:12;;;;;;;24.33;15.93;;;4.50;92.30;;;;;;6267875;22;20308;-62
2022/01/23 08:31:37;;;;;;;30.55;15.32;;;4.50;92.20;;;;;;6272180;22;20000;-62
2022/01/23 08:34:03;;;;;;;27.65;16.05;;;4.50;92.10;;;;;;6272497;22;20004;-60
2022/01/23 08:36:29;;;;;;;27.73;15.30;;;4.50;92.10;;;;;;6270471;22;20003;-61
2022/01/23 08:38:55;;;;;;;24.73;15.43;;;4.60;92.10;;;;;;6269097;22;20502;-60
2022/01/23 08:43:49;;;;;;;23.08;14.73;;;4.60;92.20;;;;;;6245573;22;20008;-60
2022/01/23 08:46:15;;;;;;;23.05;15.48;;;4.60;92.10;;;;;;6271108;22;20006;-62
2022/01/23 08:48:41;;;;;;;26.13;14.75;;;4.70;92.10;;;;;;6273473;22;20042;-62
2022/01/23 08:51:07;;;;;;;24.35;15.70;;;4.60;92.10;;;;;;6272256;22;20038;-60
2022/01/23 08:53:33;;;;;;;24.42;14.38;;;4.70;92.10;;;;;;6272836;22;20110;-61
2022/01/23 08:55:58;;;;;;;25.38;14.80;;;4.70;92.10;;;;;;6271720;22;20015;-60
2022/01/23 08:58:24;;;;;;;23.65;14.95;;;4.70;92.10;;;;;;6272242;22;20016;-62
2022/01/23 09:00:49;;;;;;;22.80;14.75;;;4.70;91.90;;;;;;6243503;22;20307;-61
2022/01/23 09:03:15;;;;;;;25.80;14.90;;;4.70;92.00;;;;;;6242669;22;20440;-60
2022/01/23 09:05:40;;;;;;;20.85;13.82;;;4.80;92.10;;;;;;6215920;22;20008;-60
2022/01/23 09:08:06;;;;;;;19.70;13.55;;;4.80;92.10;;;;;;6217979;22;20341;-61
2022/01/23 09:10:40;;;;;;;21.45;15.30;;;4.80;92.10;;;;;;6217160;22;20061;-61
2022/01/23 09:13:15;;;;;;;20.85;15.25;;;4.80;92.10;;;;;;6243534;22;20008;-61
2022/01/23 09:15:41;;;;;;;17.85;13.88;;;5.10;92.10;;;;;;6222015;22;19996;-62
2022/01/23 09:18:06;;;;;;;19.83;13.95;;;4.80;92.00;;;;;;6215367;22;20038;-60
2022/01/23 09:20:32;;;;;;;21.60;14.98;;;5.50;92.30;;;;;;6216286;22;20079;-61
2022/01/23 09:22:57;;;;;;;25.40;14.82;;;4.80;92.20;;;;;;6242416;22;20006;-61
2022/01/23 09:25:23;;;;;;;20.75;15.02;;;4.90;92.20;;;;;;6270218;22;20004;-61
2022/01/23 09:27:49;;;;;;;29.80;14.55;;;4.90;92.10;;;;;;6268339;22;20000;-61
2022/01/23 09:30:19;;;;;;;23.90;14.18;;;5.00;92.20;;;;;;6240715;22;20440;-60
2022/01/23 09:32:45;;;;;;;22.88;13.82;;;5.00;92.20;;;;;;6216967;22;20008;-61
2022/01/23 09:35:11;;;;;;;22.95;14.15;;;5.00;92.20;;;;;;6270518;22;20000;-62
2022/01/23 09:37:37;;;;;;;26.60;14.70;;;5.00;92.10;;;;;;6272159;22;20065;-60
2022/01/23 09:40:05;;;;;;;18.33;13.70;;;5.10;92.10;;;;;;6243603;22;20221;-59
2022/01/23 09:42:34;;;;;;;24.48;14.45;;;5.10;92.10;;;;;;6242141;22;20018;-60
2022/01/23 09:45:07;;;;;;;37.75;14.77;;;5.10;92.20;;;;;;6240817;22;20492;-62
2022/01/23 09:47:33;;;;;;;17.92;13.50;;;5.10;92.10;;;;;;6268952;22;20432;-61
2022/01/23 09:50:01;;;;;;;29.23;14.43;;;5.10;92.00;;;;;;6218779;22;20091;-60
2022/01/23 09:52:29;;;;;;;23.17;14.25;;;5.20;92.10;;;;;;6244419;22;20019;-62
2022/01/23 09:55:00;;;;;;;28.88;14.07;;;5.20;92.00;;;;;;6194220;22;20010;-62
2022/01/23 09:57:29;;;;;;;33.45;14.70;;;5.20;92.10;;;;;;6214480;22;20035;-61
2022/01/23 09:59:56;;;;;;;26.08;14.63;;;5.20;92.00;;;;;;6243509;22;20004;-62
2022/01/23 10:02:23;;;;;;;24.10;14.32;;;5.30;92.10;;;;;;6268974;22;19996;-60
2022/01/23 10:04:52;;;;;;;26.25;14.57;;;5.30;92.10;;;;;;6241535;22;20432;-62
2022/01/23 10:07:18;;;;;;;35.78;15.00;;;5.30;92.10;;;;;;6217835;22;20008;-61
2022/01/23 10:09:44;;;;;;;33.05;14.50;;;5.30;92.10;;;;;;6216301;22;20003;-63
2022/01/23 10:12:10;;;;;;;37.00;15.90;;;5.40;92.20;;;;;;6241048;22;20003;-60
2022/01/23 10:14:36;;;;;;;36.38;15.27;;;5.40;92.10;;;;;;6242204;22;20014;-62
2022/01/23 10:17:02;;;;;;;34.22;14.15;;;5.40;92.10;;;;;;6266914;22;20023;-62
2022/01/23 10:19:27;;;;;;;29.48;14.45;;;5.50;92.20;;;;;;6243262;22;20415;-62
2022/01/23 10:21:53;;;;;;;34.65;15.02;;;5.50;92.20;;;;;;6242390;22;20149;-63
2022/01/23 10:24:18;;;;;;;36.40;16.50;;;5.50;92.10;;;;;;6241843;22;20113;-60
2022/01/23 10:26:53;;;;;;;36.00;15.65;;;5.60;92.20;;;;;;6217340;22;20784;-61
2022/01/23 10:29:25;;;;;;;41.88;15.32;;;5.60;92.20;;;;;;6270875;22;20031;-61
2022/01/23 10:32:21;;;;;;;37.35;15.85;;;5.60;92.10;;;;;;6243217;22;20011;-61
2022/01/23 10:34:55;;;;;;;28.77;14.88;;;5.70;92.10;;;;;;6241214;22;20426;-59
2022/01/23 10:37:41;;;;;;;32.58;14.80;;;5.70;92.00;;;;;;6267912;22;20007;-61
2022/01/23 10:40:24;;;;;;;45.67;14.60;;;5.70;91.90;;;;;;6241755;22;20408;-60
2022/01/23 10:43:07;;;;;;;55.92;16.92;;;5.80;92.00;;;;;;6219032;22;20012;-61
2022/01/23 10:48:37;;;;;;;35.13;15.75;;;5.80;91.90;;;;;;6268494;22;20061;-62
2022/01/23 10:51:17;;;;;;;43.58;16.02;;;5.80;91.90;;;;;;6239541;22;20028;-62
2022/01/23 10:54:09;;;;;;;60.45;16.83;;;5.90;92.00;;;;;;6266352;22;20000;-60
2022/01/23 10:56:39;;;;;;;38.90;15.52;;;5.90;92.10;;;;;;6267954;22;20016;-60
2022/01/23 10:59:11;;;;;;;45.70;16.27;;;5.90;92.10;;;;;;6215471;22;20012;-62
2022/01/23 11:01:38;;;;;;;52.95;16.15;;;5.90;92.10;;;;;;6263520;22;20368;-60
2022/01/23 11:04:11;;;;;;;55.40;17.30;;;6.00;92.10;;;;;;6263565;22;20074;-62
2022/01/23 11:06:56;;;;;;;42.17;16.92;;;6.00;92.10;;;;;;6237459;22;20011;-61
2022/01/23 11:09:26;;;;;;;69.17;18.07;;;6.00;92.10;;;;;;6267250;22;19995;-59
2022/01/23 11:12:00;;;;;;;51.35;18.02;;;6.00;92.10;;;;;;6213491;22;20003;-61
2022/01/23 11:17:22;;;;;;;50.33;16.60;;;6.10;92.20;;;;;;6267820;22;20014;-60
2022/01/23 11:19:49;;;;;;;49.10;16.52;;;6.10;92.20;;;;;;6266267;22;20008;-62
2022/01/23 11:22:26;;;;;;;58.67;17.33;;;6.10;92.20;;;;;;6266133;22;20056;-61
2022/01/23 11:24:52;;;;;;;47.17;18.48;;;6.10;92.20;;;;;;6268104;22;20006;-59
2022/01/23 11:27:19;;;;;;;55.10;16.80;;;6.20;92.10;;;;;;6266951;22;20003;-62
2022/01/23 11:30:03;;;;;;;55.05;16.90;;;6.20;92.00;;;;;;6266994;22;20003;-62
2022/01/23 11:32:34;;;;;;;56.60;16.58;;;6.20;92.10;;;;;;6242895;22;20008;-60
2022/01/23 11:35:05;;;;;;;59.83;16.63;;;6.20;92.00;;;;;;6270416;22;20109;-61
2022/01/23 11:37:31;;;;;;;76.88;16.88;;;6.30;92.00;;;;;;6243002;22;19999;-60
2022/01/23 11:40:03;;;;;;;60.67;16.83;;;6.30;91.90;;;;;;6267971;22;20015;-60
2022/01/23 11:56:24;;;;;;;98.85;19.98;;;6.50;91.90;;;;;;6267304;22;20019;-60
2022/01/23 11:58:55;;;;;;;73.35;19.63;;;6.50;91.90;;;;;;6267528;22;20006;-59
2022/01/23 12:01:24;;;;;;;82.30;19.17;;;6.60;91.90;;;;;;6268396;22;20375;-62
2022/01/23 12:04:20;;;;;;;92.10;19.33;;;6.60;92.00;;;;;;6241623;22;20027;-62
2022/01/23 12:07:08;;;;;;;89.43;19.13;;;6.70;91.90;;;;;;6238092;22;20008;-60
2022/01/23 12:09:34;;;;;;;84.40;19.55;;;6.70;91.80;;;;;;6264257;22;20015;-65
2022/01/23 12:12:20;;;;;;;98.22;19.08;;;6.80;91.90;;;;;;6239230;22;20055;-62
2022/01/23 12:17:15;;;;;;;74.82;18.65;;;6.80;91.80;;;;;;6268312;22;20014;-61
2022/01/23 12:19:45;;;;;;;67.82;19.17;;;6.80;91.70;;;;;;6267258;22;20004;-62
2022/01/23 12:22:36;;;;;;;103.63;19.63;;;6.80;91.70;;;;;;6239117;22;20004;-62
2022/01/23 12:25:09;;;;;;;113.68;21.15;;;6.90;91.90;;;;;;6267171;22;20075;-60
2022/01/23 12:27:34;;;;;;;113.90;21.88;;;6.90;91.90;;;;;;6239326;22;20433;-62
2022/01/23 12:30:31;;;;;;;110.47;21.90;;;7.00;91.90;;;;;;6268444;22;20057;-61
2022/01/23 12:33:13;;;;;;;101.53;20.13;;;7.00;91.90;;;;;;6240763;22;19999;-62
2022/01/23 12:35:40;;;;;;;125.15;21.63;;;7.10;91.80;;;;;;6240540;22;20050;-60
2022/01/23 12:38:06;;;;;;;131.05;21.38;;;7.10;91.90;;;;;;6213292;22;20046;-59
2022/01/23 12:40:32;;;;;;;105.57;19.85;;;7.20;91.90;;;;;;6215783;22;20003;-61
2022/01/23 12:43:18;;;;;;;140.07;24.60;;;7.20;91.80;;;;;;6215786;22;20031;-62
2022/01/23 12:46:02;;;;;;;200.48;25.90;;;7.20;91.80;;;;;;6240213;22;20150;-62
2022/01/23 12:48:36;;;;;;;123.35;22.42;;;7.20;91.80;;;;;;6213695;22;20038;-62
2022/01/23 12:51:05;;;;;;;109.70;20.83;;;7.30;91.80;;;;;;6266806;22;20089;-60
2022/01/23 12:53:43;;;;;;;111.63;20.83;;;7.30;91.70;;;;;;6241464;22;20552;-63
2022/01/23 12:56:10;;;;;;;101.03;21.48;;;7.30;91.50;;;;;;6247022;22;20354;-60
2022/01/23 12:58:36;;;;;;;126.53;20.33;;;7.30;91.50;;;;;;6266106;22;20003;-63
2022/01/23 13:01:17;;;;;;;182.10;27.88;;;7.40;91.60;;;;;;6266067;22;20437;-66
2022/01/23 13:03:50;;;;;;;133.68;21.48;;;7.40;91.60;;;;;;6238707;22;20058;-61
2022/01/23 13:06:16;;;;;;;137.73;20.45;;;7.50;91.60;;;;;;6268745;22;20004;-61
2022/01/23 13:08:49;;;;;;;101.65;19.65;;;7.50;91.60;;;;;;6266868;22;20097;-63
2022/01/23 13:12:04;;;;;;;121.47;19.50;;;7.50;91.60;;;;;;6267871;22;20460;-62
2022/01/23 13:14:03;;;;;;;111.90;20.40;;;7.50;91.60;;;;;;6253676;22;20018;-59
2022/01/23 13:16:39;;;;;;;114.15;20.00;;;7.60;91.60;;;;;;6264924;22;19999;-59
2022/01/23 13:27:50;;;;;;;134.13;22.50;;;7.60;91.60;;;;;;6266003;22;20022;-60
2022/01/23 13:30:24;;;;;;;124.53;22.92;;;7.60;91.60;;;;;;6268471;22;20018;-60
2022/01/23 13:32:51;;;;;;;135.73;21.08;;;7.60;91.50;;;;;;6267252;22;20065;-62
2022/01/23 13:35:18;;;;;;;117.50;21.10;;;7.70;91.50;;;;;;6267828;22;20000;-62
2022/01/23 13:37:51;;;;;;;131.07;20.63;;;7.70;91.50;;;;;;6265698;22;20083;-61
2022/01/23 13:40:24;;;;;;;121.80;20.20;;;7.70;91.50;;;;;;6263024;22;20003;-62
2022/01/23 13:47:53;;;;;;;121.95;19.20;;;7.70;91.50;;;;;;6265783;22;20057;-61
2022/01/23 13:51:57;;;;;;;88.55;18.50;;;7.80;91.30;;;;;;6267192;22;20030;-62
2022/01/23 14:02:29;;;;;;;94.65;19.30;;;7.90;91.20;;;;;;6268630;22;20023;-59
2022/01/23 14:05:09;;;;;;;132.85;19.98;;;7.90;91.20;;;;;;6267539;22;20000;-60
2022/01/23 14:07:35;;;;;;;104.63;19.55;;;7.90;91.10;;;;;;6266222;22;20083;-61
2022/01/23 14:10:14;;;;;;;143.93;22.50;;;7.90;91.10;;;;;;6241782;22;20011;-60
2022/01/23 14:12:39;;;;;;;115.22;19.70;;;7.90;91.20;;;;;;6269307;22;20003;-61
2022/01/23 14:15:10;;;;;;;122.65;20.23;;;7.90;91.20;;;;;;6268916;22;20018;-62
2022/01/23 14:17:39;;;;;;;121.93;19.33;;;7.90;91.30;;;;;;6242174;22;20003;-60
2022/01/23 14:20:09;;;;;;;135.10;20.95;;;8.00;91.30;;;;;;6268999;22;20445;-62
2022/01/23 14:22:36;;;;;;;134.63;20.58;;;8.00;91.30;;;;;;6266624;22;20012;-62
2022/01/23 14:25:28;;;;;;;130.65;21.17;;;8.00;91.30;;;;;;6239663;22;20004;-61
2022/01/23 14:28:04;;;;;;;160.88;19.77;;;8.10;91.30;;;;;;6269009;22;19996;-60
2022/01/23 14:30:30;;;;;;;135.48;21.05;;;8.10;91.40;;;;;;6268729;22;20000;-59
2022/01/23 14:33:04;;;;;;;148.32;21.67;;;8.10;91.30;;;;;;6239131;22;20029;-64
2022/01/23 14:35:30;;;;;;;146.90;22.15;;;8.10;91.20;;;;;;6239239;22;20103;-63
2022/01/23 14:38:17;;;;;;;140.07;22.95;;;8.50;91.30;;;;;;6265167;22;20421;-60
2022/01/23 14:40:59;;;;;;;138.23;21.38;;;8.30;91.20;;;;;;6239467;22;20404;-62
2022/01/23 14:43:37;;;;;;;129.30;19.88;;;8.30;91.40;;;;;;6241094;22;20076;-62
2022/01/23 14:46:04;;;;;;;131.10;21.70;;;8.30;91.40;;;;;;6264031;22;20007;-63
2022/01/23 14:48:31;;;;;;;167.75;21.85;;;8.30;91.40;;;;;;6266040;22;20020;-62
2022/01/23 14:51:02;;;;;;;152.75;25.45;;;8.30;91.60;;;;;;6267363;22;20313;-61
2022/01/23 14:53:28;;;;;;;136.13;23.23;;;8.30;91.20;;;;;;6267400;22;20000;-61
2022/01/23 14:55:56;;;;;;;148.38;23.08;;;8.40;91.30;;;;;;6266022;22;20032;-59
2022/01/23 14:58:22;;;;;;;163.70;24.63;;;8.30;91.20;;;;;;6265518;22;20018;-61
2022/01/23 15:00:49;;;;;;;149.32;21.40;;;8.30;91.10;;;;;;6266488;22;20007;-62
2022/01/23 15:03:16;;;;;;;201.88;25.98;;;8.40;91.10;;;;;;6267467;22;20497;-62
2022/01/23 15:05:41;;;;;;;141.90;19.85;;;8.30;91.00;;;;;;6268636;22;20119;-60
2022/01/23 15:08:08;;;;;;;163.30;22.77;;;8.40;91.00;;;;;;6269618;22;19996;-60
2022/01/23 15:10:37;;;;;;;127.82;19.83;;;8.40;90.90;;;;;;6265930;22;20317;-62
2022/01/23 15:13:04;;;;;;;129.10;19.65;;;8.40;90.80;;;;;;6266457;22;20329;-60
2022/01/23 15:15:29;;;;;;;152.10;19.75;;;8.40;90.80;;;;;;6268105;22;20000;-62
2022/01/23 15:17:55;;;;;;;115.03;19.73;;;8.30;90.70;;;;;;6243175;22;20014;-62
2022/01/23 15:20:20;;;;;;;149.65;19.67;;;8.30;90.70;;;;;;6268352;22;20007;-62
2022/01/23 15:22:46;;;;;;;127.40;21.55;;;8.40;90.80;;;;;;6267954;22;20057;-61
2022/01/23 15:25:13;;;;;;;138.50;21.02;;;8.40;90.80;;;;;;6267625;22;20008;-62
2022/01/23 15:27:38;;;;;;;155.65;22.45;;;8.30;90.70;;;;;;6266740;22;20004;-63
2022/01/23 15:30:06;;;;;;;155.10;23.85;;;8.40;90.80;;;;;;6244140;22;20071;-62
2022/01/23 15:32:31;;;;;;;138.20;21.88;;;8.40;90.70;;;;;;6269424;22;20614;-60
2022/01/23 15:34:57;;;;;;;141.13;22.05;;;8.40;90.60;;;;;;6266994;22;20014;-63
2022/01/23 15:37:22;;;;;;;131.88;19.38;;;8.40;90.60;;;;;;6266332;22;20018;-61
2022/01/23 15:39:48;;;;;;;148.50;21.50;;;8.40;90.40;;;;;;6267941;22;20015;-64
2022/01/23 15:42:15;;;;;;;163.63;21.58;;;8.40;90.40;;;;;;6266742;22;20408;-63
2022/01/23 15:44:41;;;;;;;170.05;22.52;;;8.30;90.40;;;;;;6266500;22;20071;-62
2022/01/23 15:47:06;;;;;;;211.52;26.70;;;8.30;90.40;;;;;;6270541;22;20297;-63
2022/01/23 15:49:32;;;;;;;169.85;23.58;;;8.30;90.40;;;;;;6266491;22;20448;-62
2022/01/23 15:51:57;;;;;;;154.40;21.13;;;8.30;90.40;;;;;;6266556;22;20068;-61
2022/01/23 15:54:23;;;;;;;117.78;19.15;;;8.30;90.30;;;;;;6268863;22;20091;-61
2022/01/23 15:56:51;;;;;;;142.48;18.67;;;8.30;90.30;;;;;;6267037;22;20121;-60